Deva — A8OK3 — position and weather

sailwx.info

Track history (hours):
 
Tides and Currents Weather Stations Pressure Air Temp Water Temp Dewpoint Dewpoint Depression Visibility Wind Speed Wind Dir Waves Ship Positions

Deva

Last reported at 2017-Jul-22 22:31 UTC. Time now 2017-Jul-22 22:35 UTC.
Position N 31°13' E 122°27'.

Length 259 m; draft 8.5 m.

Type: Ship (hazmat cat A). MMSI: 636013644.

Date/timePositionNaut miles runAvg speedWind from/ knotsBaromVisibWave heightAir tempDewpointWater temp
2017-Jul-22 22:31N 31°13' E 122°27'0 0.0
2017-Jul-22 22:00N 31°13' E 122°27'0 0.1
2017-Jul-22 21:31N 31°13' E 122°27'0 0.0
2017-Jul-22 20:57N 31°13' E 122°27'0 0.0
2017-Jul-22 20:30N 31°13' E 122°27'0 0.0
2017-Jul-22 19:54N 31°13' E 122°27'0 0.0
2017-Jul-22 19:24N 31°13' E 122°27'0 0.2
2017-Jul-22 18:54N 31°13' E 122°27'0 0.2
2017-Jul-22 18:30N 31°13' E 122°27'0 0.0
2017-Jul-22 17:54N 31°13' E 122°27'0 0.1
2017-Jul-22 17:30N 31°13' E 122°27'0 0.0
2017-Jul-22 17:00N 31°13' E 122°27'0 0.1
2017-Jul-22 16:30N 31°13' E 122°27'0 0.0
2017-Jul-22 16:00N 31°13' E 122°27'0 0.1
2017-Jul-22 15:30N 31°13' E 122°27'0 0.0
2017-Jul-22 15:00N 31°13' E 122°27'0 0.1
2017-Jul-22 13:51N 31°13' E 122°27'0 0.2
2017-Jul-22 13:30N 31°13' E 122°27'0 0.1
2017-Jul-22 12:57N 31°13' E 122°27'0 0.1
2017-Jul-22 12:30N 31°13' E 122°27'0 0.1
2017-Jul-22 12:00N 31°13' E 122°27'0 0.1
2017-Jul-22 11:30N 31°13' E 122°27'0 0.1
2017-Jul-22 10:57N 31°13' E 122°27'0 0.0
2017-Jul-22 10:30N 31°13' E 122°27'0 0.0
2017-Jul-22 10:00N 31°13' E 122°27'0 0.1
2017-Jul-22 09:30N 31°13' E 122°27'0 0.2
2017-Jul-22 08:57N 31°13' E 122°27'2 4.6
2017-Jul-22 08:30N 31°12' E 122°29'611.4
2017-Jul-22 08:01N 31°17' E 122°34'713.3
2017-Jul-22 07:30N 31°23' E 122°34'713.2
2017-Jul-22 07:00N 31°30' E 122°36'712.9
2017-Jul-22 06:29N 31°36' E 122°37'612.6
2017-Jul-22 06:00N 31°42' E 122°39'612.6
2017-Jul-22 05:30N 31°48' E 122°40'612.6
2017-Jul-22 05:00N 31°54' E 122°42'612.1
2017-Jul-22 04:30N 32°00' E 122°43'611.8
2017-Jul-22 04:00N 32°06' E 122°45'611.5
2017-Jul-22 03:30N 32°12' E 122°45'611.1
2017-Jul-22 03:00N 32°17' E 122°46'611.2
2017-Jul-22 02:30N 32°23' E 122°46'611.3
2017-Jul-22 02:00N 32°29' E 122°45'611.5
2017-Jul-22 01:30N 32°34' E 122°44'611.4
2017-Jul-22 01:00N 32°40' E 122°43'611.6
2017-Jul-22 00:29N 32°46' E 122°41'612.4
2017-Jul-21 23:59N 32°52' E 122°40'612.8
2017-Jul-21 23:30N 32°58' E 122°40'713.2
2017-Jul-21 23:00N 33°05' E 122°40'713.3
2017-Jul-21 22:30N 33°11' E 122°39'713.3
2017-Jul-21 22:00N 33°18' E 122°37'713.0
2017-Jul-21 21:30N 33°24' E 122°36'713.1
2017-Jul-21 21:00N 33°30' E 122°34'713.0
2017-Jul-21 20:30N 33°37' E 122°32'612.7
2017-Jul-21 19:59N 33°43' E 122°30'712.5
2017-Jul-21 19:27N 33°50' E 122°28'612.2
2017-Jul-21 19:00N 33°55' E 122°27'611.5
2017-Jul-21 18:30N 34°00' E 122°25'611.5
2017-Jul-21 18:00N 34°06' E 122°22'611.3
2017-Jul-21 17:26N 34°12' E 122°19'510.6
2017-Jul-21 16:58N 34°16' E 122°17'510.5
2017-Jul-21 16:30N 34°21' E 122°15'510.4
2017-Jul-21 16:00N 34°26' E 122°12'610.7
2017-Jul-21 15:29N 34°31' E 122°09'92 1.8
2017-Jul-19 12:15N 35°10' E 120°28'313.3
2017-Jul-19 12:00N 35°08' E 120°25'713.1
2017-Jul-19 11:27N 35°04' E 120°17'613.4
2017-Jul-19 11:00N 35°01' E 120°11'713.4
2017-Jul-19 10:29N 34°58' E 120°04'613.3
2017-Jul-19 10:00N 34°55' E 119°57'713.4
2017-Jul-19 09:30N 34°52' E 119°49'3 0.1
2017-Jul-18 08:33N 34°51' E 119°46'111.4
2017-Jul-18 08:27N 34°52' E 119°47'4 2.6
2017-Jul-18 06:55N 34°56' E 119°50'0 0.2
2017-Jul-18 05:43N 34°56' E 119°50'0 0.2
2017-Jul-18 05:25N 34°55' E 119°50'0 0.1
2017-Jul-18 04:55N 34°55' E 119°50'0 0.1
2017-Jul-18 04:25N 34°55' E 119°50'0 0.0
2017-Jul-18 03:55N 34°55' E 119°50'0 0.0
2017-Jul-18 02:13N 34°55' E 119°50'0 0.0
2017-Jul-18 01:55N 34°55' E 119°50'0 0.0
2017-Jul-18 01:13N 34°55' E 119°50'0 0.1
2017-Jul-18 00:55N 34°55' E 119°50'0 0.0
2017-Jul-18 00:25N 34°55' E 119°50'0 0.1
2017-Jul-17 20:49N 34°55' E 119°50'0 0.0
2017-Jul-17 20:25N 34°55' E 119°50'0 0.0
2017-Jul-17 19:49N 34°55' E 119°50'0 0.0
2017-Jul-17 19:13N 34°55' E 119°50'0 0.0
2017-Jul-17 18:49N 34°55' E 119°50'0 0.1
2017-Jul-17 18:25N 34°55' E 119°50'0 0.1
2017-Jul-17 17:55N 34°55' E 119°50'0 0.1
2017-Jul-17 17:25N 34°55' E 119°50'0 0.1
2017-Jul-17 16:55N 34°55' E 119°50'0 0.0
2017-Jul-17 16:19N 34°55' E 119°50'0 0.1
2017-Jul-17 15:49N 34°55' E 119°50'199 4.7
2017-Jul-15 21:23N 33°11' E 123°14'5314.3
2017-Jul-15 17:42N 32°18' E 123°18'314.2
2017-Jul-15 17:30N 32°15' E 123°18'714.1
2017-Jul-15 17:00N 32°08' E 123°18'713.8
2017-Jul-15 16:30N 32°01' E 123°18'713.7
2017-Jul-15 16:00N 31°55' E 123°18'813.4
2017-Jul-15 15:26N 31°47' E 123°18'713.1
2017-Jul-15 14:54N 31°40' E 123°18'1112.1
2017-Jul-15 13:57N 31°29' E 123°18'611.9
2017-Jul-15 13:29N 31°23' E 123°19'812.0
2017-Jul-15 12:50N 31°15' E 123°19'412.2
2017-Jul-15 12:29N 31°11' E 123°20'612.5
2017-Jul-15 12:00N 31°05' E 123°19'712.4
2017-Jul-15 11:29N 30°58' E 123°18'612.9
2017-Jul-15 11:00N 30°53' E 123°16'612.9
2017-Jul-15 10:30N 30°46' E 123°15'713.1
2017-Jul-15 10:00N 30°40' E 123°13'42813.8
2017-Jul-14 02:58N 24°31' E 119°08'613.4
2017-Jul-14 02:30N 24°26' E 119°03'813.3
2017-Jul-14 01:54N 24°22' E 118°56'513.2
2017-Jul-14 01:30N 24°18' E 118°51'713.2
2017-Jul-14 00:58N 24°13' E 118°46'713.3
2017-Jul-14 00:28N 24°09' E 118°40'613.2
2017-Jul-13 23:59N 24°05' E 118°35'812.8
2017-Jul-13 23:22N 23°60' E 118°29'512.7
2017-Jul-13 22:59N 23°57' E 118°25'612.2
2017-Jul-13 22:30N 23°53' E 118°20'712.0
2017-Jul-13 21:56N 23°48' E 118°14'24511.5
2017-Jul-13 00:44N 22°19' E 114°06'  
Track history (hours):
 
Tides and Currents Weather Stations Pressure Air Temp Water Temp Dewpoint Dewpoint Depression Visibility Wind Speed Wind Dir Waves Ship Positions

Deva

Last reported at 2017-Jul-22 22:31 UTC. Time now 2017-Jul-22 22:35 UTC.
Position N 31°13' E 122°27'.

Length 259 m; draft 8.5 m.

Type: Ship (hazmat cat A). MMSI: 636013644.

Date/timePositionNaut miles runAvg speedWind from/ knotsBaromVisibWave heightAir tempDewpointWater temp
2017-Jul-22 22:31N 31°13' E 122°27'0 0.0
2017-Jul-22 22:00N 31°13' E 122°27'0 0.1
2017-Jul-22 21:31N 31°13' E 122°27'0 0.0
2017-Jul-22 20:57N 31°13' E 122°27'0 0.0
2017-Jul-22 20:30N 31°13' E 122°27'0 0.0
2017-Jul-22 19:54N 31°13' E 122°27'0 0.0
2017-Jul-22 19:24N 31°13' E 122°27'0 0.2
2017-Jul-22 18:54N 31°13' E 122°27'0 0.2
2017-Jul-22 18:30N 31°13' E 122°27'0 0.0
2017-Jul-22 17:54N 31°13' E 122°27'0 0.1
2017-Jul-22 17:30N 31°13' E 122°27'0 0.0
2017-Jul-22 17:00N 31°13' E 122°27'0 0.1
2017-Jul-22 16:30N 31°13' E 122°27'0 0.0
2017-Jul-22 16:00N 31°13' E 122°27'0 0.1
2017-Jul-22 15:30N 31°13' E 122°27'0 0.0
2017-Jul-22 15:00N 31°13' E 122°27'0 0.1
2017-Jul-22 13:51N 31°13' E 122°27'0 0.2
2017-Jul-22 13:30N 31°13' E 122°27'0 0.1
2017-Jul-22 12:57N 31°13' E 122°27'0 0.1
2017-Jul-22 12:30N 31°13' E 122°27'0 0.1
2017-Jul-22 12:00N 31°13' E 122°27'0 0.1
2017-Jul-22 11:30N 31°13' E 122°27'0 0.1
2017-Jul-22 10:57N 31°13' E 122°27'0 0.0
2017-Jul-22 10:30N 31°13' E 122°27'0 0.0
2017-Jul-22 10:00N 31°13' E 122°27'0 0.1
2017-Jul-22 09:30N 31°13' E 122°27'0 0.2
2017-Jul-22 08:57N 31°13' E 122°27'2 4.6
2017-Jul-22 08:30N 31°12' E 122°29'611.4
2017-Jul-22 08:01N 31°17' E 122°34'713.3
2017-Jul-22 07:30N 31°23' E 122°34'713.2
2017-Jul-22 07:00N 31°30' E 122°36'712.9
2017-Jul-22 06:29N 31°36' E 122°37'612.6
2017-Jul-22 06:00N 31°42' E 122°39'612.6
2017-Jul-22 05:30N 31°48' E 122°40'612.6
2017-Jul-22 05:00N 31°54' E 122°42'612.1
2017-Jul-22 04:30N 32°00' E 122°43'611.8
2017-Jul-22 04:00N 32°06' E 122°45'611.5
2017-Jul-22 03:30N 32°12' E 122°45'611.1
2017-Jul-22 03:00N 32°17' E 122°46'611.2
2017-Jul-22 02:30N 32°23' E 122°46'611.3
2017-Jul-22 02:00N 32°29' E 122°45'611.5
2017-Jul-22 01:30N 32°34' E 122°44'611.4
2017-Jul-22 01:00N 32°40' E 122°43'611.6
2017-Jul-22 00:29N 32°46' E 122°41'612.4
2017-Jul-21 23:59N 32°52' E 122°40'612.8
2017-Jul-21 23:30N 32°58' E 122°40'713.2
2017-Jul-21 23:00N 33°05' E 122°40'713.3
2017-Jul-21 22:30N 33°11' E 122°39'713.3
2017-Jul-21 22:00N 33°18' E 122°37'713.0
2017-Jul-21 21:30N 33°24' E 122°36'713.1
2017-Jul-21 21:00N 33°30' E 122°34'713.0
2017-Jul-21 20:30N 33°37' E 122°32'612.7
2017-Jul-21 19:59N 33°43' E 122°30'712.5
2017-Jul-21 19:27N 33°50' E 122°28'612.2
2017-Jul-21 19:00N 33°55' E 122°27'611.5
2017-Jul-21 18:30N 34°00' E 122°25'611.5
2017-Jul-21 18:00N 34°06' E 122°22'611.3
2017-Jul-21 17:26N 34°12' E 122°19'510.6
2017-Jul-21 16:58N 34°16' E 122°17'510.5
2017-Jul-21 16:30N 34°21' E 122°15'510.4
2017-Jul-21 16:00N 34°26' E 122°12'610.7
2017-Jul-21 15:29N 34°31' E 122°09'92 1.8
2017-Jul-19 12:15N 35°10' E 120°28'313.3
2017-Jul-19 12:00N 35°08' E 120°25'713.1
2017-Jul-19 11:27N 35°04' E 120°17'613.4
2017-Jul-19 11:00N 35°01' E 120°11'713.4
2017-Jul-19 10:29N 34°58' E 120°04'613.3
2017-Jul-19 10:00N 34°55' E 119°57'713.4
2017-Jul-19 09:30N 34°52' E 119°49'3 0.1
2017-Jul-18 08:33N 34°51' E 119°46'111.4
2017-Jul-18 08:27N 34°52' E 119°47'4 2.6
2017-Jul-18 06:55N 34°56' E 119°50'0 0.2
2017-Jul-18 05:43N 34°56' E 119°50'0 0.2
2017-Jul-18 05:25N 34°55' E 119°50'0 0.1
2017-Jul-18 04:55N 34°55' E 119°50'0 0.1
2017-Jul-18 04:25N 34°55' E 119°50'0 0.0
2017-Jul-18 03:55N 34°55' E 119°50'0 0.0
2017-Jul-18 02:13N 34°55' E 119°50'0 0.0
2017-Jul-18 01:55N 34°55' E 119°50'0 0.0
2017-Jul-18 01:13N 34°55' E 119°50'0 0.1
2017-Jul-18 00:55N 34°55' E 119°50'0 0.0
2017-Jul-18 00:25N 34°55' E 119°50'0 0.1
2017-Jul-17 20:49N 34°55' E 119°50'0 0.0
2017-Jul-17 20:25N 34°55' E 119°50'0 0.0
2017-Jul-17 19:49N 34°55' E 119°50'0 0.0
2017-Jul-17 19:13N 34°55' E 119°50'0 0.0
2017-Jul-17 18:49N 34°55' E 119°50'0 0.1
2017-Jul-17 18:25N 34°55' E 119°50'0 0.1
2017-Jul-17 17:55N 34°55' E 119°50'0 0.1
2017-Jul-17 17:25N 34°55' E 119°50'0 0.1
2017-Jul-17 16:55N 34°55' E 119°50'0 0.0
2017-Jul-17 16:19N 34°55' E 119°50'0 0.1
2017-Jul-17 15:49N 34°55' E 119°50'199 4.7
2017-Jul-15 21:23N 33°11' E 123°14'5314.3
2017-Jul-15 17:42N 32°18' E 123°18'314.2
2017-Jul-15 17:30N 32°15' E 123°18'714.1
2017-Jul-15 17:00N 32°08' E 123°18'713.8
2017-Jul-15 16:30N 32°01' E 123°18'713.7
2017-Jul-15 16:00N 31°55' E 123°18'813.4
2017-Jul-15 15:26N 31°47' E 123°18'713.1
2017-Jul-15 14:54N 31°40' E 123°18'1112.1
2017-Jul-15 13:57N 31°29' E 123°18'611.9
2017-Jul-15 13:29N 31°23' E 123°19'812.0
2017-Jul-15 12:50N 31°15' E 123°19'412.2
2017-Jul-15 12:29N 31°11' E 123°20'612.5
2017-Jul-15 12:00N 31°05' E 123°19'712.4
2017-Jul-15 11:29N 30°58' E 123°18'612.9
2017-Jul-15 11:00N 30°53' E 123°16'612.9
2017-Jul-15 10:30N 30°46' E 123°15'713.1
2017-Jul-15 10:00N 30°40' E 123°13'42813.8
2017-Jul-14 02:58N 24°31' E 119°08'613.4
2017-Jul-14 02:30N 24°26' E 119°03'813.3
2017-Jul-14 01:54N 24°22' E 118°56'513.2
2017-Jul-14 01:30N 24°18' E 118°51'713.2
2017-Jul-14 00:58N 24°13' E 118°46'713.3
2017-Jul-14 00:28N 24°09' E 118°40'613.2
2017-Jul-13 23:59N 24°05' E 118°35'812.8
2017-Jul-13 23:22N 23°60' E 118°29'512.7
2017-Jul-13 22:59N 23°57' E 118°25'612.2
2017-Jul-13 22:30N 23°53' E 118°20'712.0
2017-Jul-13 21:56N 23°48' E 118°14'24511.5
2017-Jul-13 00:44N 22°19' E 114°06'  

Dump ship's entire track history